createdAt,value
2023-03-26T00:01:47.312Z,14.74
2023-03-26T00:06:41.938Z,13.21
2023-03-26T00:11:40.338Z,14.69
2023-03-26T00:16:40.774Z,14.75
2023-03-26T00:21:40.253Z,14.70
2023-03-26T00:26:47.339Z,14.66
2023-03-26T00:31:53.234Z,14.64
2023-03-26T00:36:54.998Z,14.14
2023-03-26T00:41:59.660Z,13.98
2023-03-26T00:46:53.735Z,14.18
2023-03-26T00:51:57.061Z,14.17
2023-03-26T00:56:51.066Z,12.88
2023-03-26T01:01:45.013Z,13.87
2023-03-26T01:06:46.608Z,13.77
2023-03-26T01:11:42.437Z,13.06
2023-03-26T01:16:43.188Z,12.60
2023-03-26T01:21:45.996Z,12.55
2023-03-26T01:26:45.897Z,13.57
2023-03-26T01:31:50.765Z,12.45
2023-03-26T01:36:58.191Z,13.45
2023-03-26T01:42:02.220Z,11.91
2023-03-26T01:46:59.411Z,12.61
2023-03-26T01:51:55.631Z,12.58
2023-03-26T01:57:04.351Z,13.04
2023-03-26T02:02:05.862Z,12.71
2023-03-26T02:07:08.732Z,12.71
2023-03-26T02:12:11.250Z,12.20
2023-03-26T02:17:16.070Z,12.39
2023-03-26T02:22:21.474Z,13.13
2023-03-26T02:27:22.089Z,11.91
2023-03-26T02:32:16.394Z,12.80
2023-03-26T02:37:10.750Z,13.15
2023-03-26T02:42:07.517Z,13.19
2023-03-26T02:47:11.160Z,12.90
2023-03-26T02:52:25.126Z,13.25
2023-03-26T02:57:26.091Z,11.80
2023-03-26T03:02:46.677Z,13.32
2023-03-26T03:07:59.680Z,13.05
2023-03-26T03:12:58.911Z,13.37
2023-03-26T03:17:59.019Z,12.72
2023-03-26T03:22:57.574Z,12.32
2023-03-26T03:27:54.220Z,13.26
2023-03-26T03:32:53.417Z,12.89
2023-03-26T03:37:58.241Z,12.42
2023-03-26T03:42:54.402Z,12.73
2023-03-26T03:48:04.632Z,12.01
2023-03-26T03:53:11.984Z,12.76
2023-03-26T03:58:10.174Z,13.04
2023-03-26T04:03:06.651Z,12.72
2023-03-26T04:08:10.347Z,12.51
2023-03-26T04:13:21.035Z,12.04
2023-03-26T04:18:37.061Z,12.35
2023-03-26T04:23:43.015Z,12.36
2023-03-26T04:28:59.894Z,12.05
2023-03-26T04:34:01.856Z,12.31
2023-03-26T04:39:16.102Z,12.83
2023-03-26T04:44:37.416Z,11.46
2023-03-26T04:49:41.900Z,12.32
2023-03-26T04:54:40.911Z,12.02
2023-03-26T04:59:41.520Z,11.54
2023-03-26T05:04:48.067Z,12.23
2023-03-26T05:09:44.207Z,11.51
2023-03-26T05:15:25.768Z,12.87
2023-03-26T05:21:20.530Z,12.50
2023-03-26T05:26:34.231Z,11.99
2023-03-26T05:31:33.258Z,12.20
2023-03-26T05:36:35.540Z,12.92
2023-03-26T05:42:11.517Z,12.55
2023-03-26T05:47:32.517Z,11.68
2023-03-26T05:52:37.285Z,12.49
2023-03-26T05:57:52.681Z,11.77
2023-03-26T06:09:15.844Z,11.51
2023-03-26T06:14:25.854Z,11.85
2023-03-26T06:19:53.538Z,11.81
2023-03-26T06:25:01.663Z,11.14
2023-03-26T06:30:33.613Z,11.89
2023-03-26T06:35:50.883Z,11.74
2023-03-26T06:40:57.197Z,12.28
2023-03-26T06:46:29.757Z,12.43
2023-03-26T06:52:05.527Z,12.57
2023-03-26T06:57:23.696Z,11.53
2023-03-26T07:02:48.517Z,12.80
2023-03-26T07:08:17.126Z,12.42
2023-03-26T07:19:36.538Z,12.68
2023-03-26T07:24:42.096Z,12.73
2023-03-26T07:30:03.014Z,13.23
2023-03-26T07:35:24.862Z,14.10
2023-03-26T07:40:57.246Z,13.76
2023-03-26T07:46:21.477Z,13.31
2023-03-26T07:51:56.320Z,14.08
2023-03-26T08:04:33.975Z,14.13
2023-03-26T08:09:45.065Z,15.40
2023-03-26T08:15:35.188Z,15.71
2023-03-26T08:21:20.586Z,14.67
2023-03-26T09:02:14.109Z,16.15
2023-03-26T09:14:17.644Z,17.57
2023-03-26T09:26:47.191Z,18.66
2023-03-26T09:39:13.456Z,18.82
2023-03-26T09:45:12.138Z,17.89
2023-03-26T09:56:40.706Z,19.62
2023-03-26T10:02:04.220Z,19.87
2023-03-26T10:14:04.706Z,18.79
2023-03-26T10:19:56.000Z,19.03
2023-03-26T10:25:08.976Z,19.47
2023-03-26T10:30:53.566Z,19.36
2023-03-26T10:36:51.121Z,18.81
2023-03-26T10:42:56.578Z,19.69
2023-03-26T10:54:10.614Z,19.80
2023-03-26T10:59:28.940Z,19.05
2023-03-26T11:04:46.229Z,20.46
2023-03-26T11:10:02.098Z,21.48
2023-03-26T11:15:34.699Z,22.13
2023-03-26T11:20:38.501Z,22.90
2023-03-26T11:26:14.012Z,24.09
2023-03-26T11:31:32.422Z,24.87
2023-03-26T11:36:38.801Z,24.55
2023-03-26T11:42:02.331Z,24.73
2023-03-26T11:47:17.008Z,26.39
2023-03-26T11:52:25.294Z,25.44
2023-03-26T11:57:31.466Z,25.89
2023-03-26T12:02:50.536Z,26.25
2023-03-26T12:08:03.842Z,25.88
2023-03-26T12:13:56.023Z,27.12
2023-03-26T12:19:28.067Z,27.12
2023-03-26T12:30:55.564Z,27.97
2023-03-26T12:36:02.158Z,28.17
2023-03-26T12:44:42.183Z,28.20
2023-03-26T12:48:00.199Z,29.01
2023-03-26T12:53:06.261Z,28.85
2023-03-26T12:59:29.570Z,28.33
2023-03-26T13:05:30.009Z,27.75
2023-03-26T13:11:16.590Z,27.39
2023-03-26T13:16:48.601Z,25.47
2023-03-26T13:22:39.093Z,26.58
2023-03-26T13:28:20.640Z,26.20
2023-03-26T13:40:15.314Z,27.44
2023-03-26T13:46:15.382Z,28.32
2023-03-26T13:51:30.954Z,28.76
2023-03-26T14:16:41.797Z,28.97
2023-03-26T14:28:59.580Z,28.63
2023-03-26T14:55:27.206Z,27.60
2023-03-26T15:01:50.620Z,26.28
2023-03-26T15:07:42.537Z,26.36
2023-03-26T15:13:17.116Z,25.30
2023-03-26T15:25:40.027Z,23.30
2023-03-26T15:38:51.365Z,20.01
2023-03-26T16:04:15.737Z,18.50
2023-03-26T16:15:38.364Z,18.12
2023-03-26T16:21:31.974Z,16.84
2023-03-26T16:41:12.414Z,16.19
2023-03-26T16:46:40.614Z,16.68
2023-03-26T16:51:59.228Z,17.19
2023-03-26T16:57:03.939Z,16.23
2023-03-26T17:02:13.938Z,16.88
2023-03-26T17:07:19.842Z,16.56
2023-03-26T17:12:47.640Z,15.52
2023-03-26T17:18:25.223Z,15.13
2023-03-26T17:24:06.154Z,14.96
2023-03-26T17:30:05.974Z,16.38
2023-03-26T17:36:03.792Z,15.27
2023-03-26T17:41:32.675Z,15.86
2023-03-26T17:47:11.106Z,15.49
2023-03-26T17:53:02.417Z,15.98
2023-03-26T17:58:40.292Z,14.37
2023-03-26T18:04:06.064Z,15.78
2023-03-26T18:09:55.417Z,14.92
2023-03-26T18:34:38.551Z,14.37
2023-03-26T18:39:59.956Z,15.12
2023-03-26T18:45:31.969Z,14.00
2023-03-26T18:51:46.341Z,14.26
2023-03-26T19:04:41.467Z,13.99
2023-03-26T19:10:01.913Z,15.11
2023-03-26T19:15:19.404Z,14.02
2023-03-26T19:20:29.067Z,15.40
2023-03-26T19:39:30.838Z,13.89
2023-03-26T19:45:11.933Z,15.15
2023-03-26T19:50:34.386Z,14.43
2023-03-26T19:56:05.246Z,15.19
2023-03-26T20:02:24.917Z,15.44
2023-03-26T20:07:38.298Z,15.35
2023-03-26T20:12:46.494Z,14.80
2023-03-26T20:18:15.592Z,13.86
2023-03-26T20:23:17.851Z,14.60
2023-03-26T20:28:21.963Z,14.79
2023-03-26T20:34:07.995Z,13.35
2023-03-26T20:39:22.317Z,13.34
2023-03-26T20:44:57.179Z,14.57
2023-03-26T20:50:50.692Z,13.15
2023-03-26T20:56:13.762Z,13.83
2023-03-26T21:01:40.626Z,12.87
2023-03-26T21:07:07.141Z,12.73
2023-03-26T21:12:25.108Z,14.10
2023-03-26T21:17:32.962Z,13.96
2023-03-26T21:22:50.057Z,13.02
2023-03-26T21:28:01.501Z,12.41
2023-03-26T21:33:05.409Z,13.72
2023-03-26T21:38:11.751Z,12.82
2023-03-26T21:44:05.486Z,13.00
2023-03-26T21:49:08.455Z,12.20
2023-03-26T21:54:03.060Z,13.32
2023-03-26T21:59:07.534Z,12.33
2023-03-26T22:04:14.740Z,13.36
2023-03-26T22:09:16.666Z,12.34
2023-03-26T22:14:13.534Z,13.39
2023-03-26T22:19:12.772Z,13.25
2023-03-26T22:24:09.125Z,13.04
2023-03-26T22:34:39.085Z,13.59
2023-03-26T22:39:47.311Z,13.19
2023-03-26T22:44:45.700Z,12.36
2023-03-26T22:49:45.233Z,12.19
2023-03-26T22:54:42.499Z,13.41
2023-03-26T22:59:36.378Z,12.65
2023-03-26T23:04:32.453Z,12.54
2023-03-26T23:09:27.754Z,12.64
2023-03-26T23:14:24.422Z,12.89
2023-03-26T23:19:18.705Z,12.97
2023-03-26T23:24:12.296Z,12.37
2023-03-26T23:29:07.814Z,13.08
2023-03-26T23:34:14.709Z,11.96
2023-03-26T23:39:14.636Z,12.52
2023-03-26T23:44:13.757Z,12.93
2023-03-26T23:49:08.290Z,12.03
2023-03-26T23:54:03.061Z,11.52
2023-03-26T23:58:58.307Z,11.66
